sensor_id;sensor_type;location;lat;lon;timestamp;P1;durP1;ratioP1;P2;durP2;ratioP2
18249;SDS011;27980;52.126;5.572;2023-07-24T00:00:17;4.40;;;2.80;;
18249;SDS011;27980;52.126;5.572;2023-07-24T00:02:44;3.92;;;3.00;;
18249;SDS011;27980;52.126;5.572;2023-07-24T00:05:10;4.55;;;2.90;;
18249;SDS011;27980;52.126;5.572;2023-07-24T00:07:37;2.88;;;2.53;;
18249;SDS011;27980;52.126;5.572;2023-07-24T00:10:04;4.80;;;3.17;;
18249;SDS011;27980;52.126;5.572;2023-07-24T00:12:30;5.10;;;3.05;;
18249;SDS011;27980;52.126;5.572;2023-07-24T00:14:58;4.25;;;3.20;;
18249;SDS011;27980;52.126;5.572;2023-07-24T00:17:26;3.45;;;2.80;;
18249;SDS011;27980;52.126;5.572;2023-07-24T00:19:52;4.20;;;3.40;;
18249;SDS011;27980;52.126;5.572;2023-07-24T00:22:19;4.00;;;3.17;;
18249;SDS011;27980;52.126;5.572;2023-07-24T00:24:45;4.35;;;3.30;;
18249;SDS011;27980;52.126;5.572;2023-07-24T00:27:12;3.28;;;2.97;;
18249;SDS011;27980;52.126;5.572;2023-07-24T00:29:42;3.28;;;2.90;;
18249;SDS011;27980;52.126;5.572;2023-07-24T00:32:11;4.78;;;3.65;;
18249;SDS011;27980;52.126;5.572;2023-07-24T00:34:38;5.10;;;3.40;;
18249;SDS011;27980;52.126;5.572;2023-07-24T00:37:04;4.68;;;3.33;;
18249;SDS011;27980;52.126;5.572;2023-07-24T00:39:31;4.13;;;3.40;;
18249;SDS011;27980;52.126;5.572;2023-07-24T00:41:58;6.60;;;4.13;;
18249;SDS011;27980;52.126;5.572;2023-07-24T00:44:26;5.03;;;4.07;;
18249;SDS011;27980;52.126;5.572;2023-07-24T00:46:52;3.97;;;3.40;;
18249;SDS011;27980;52.126;5.572;2023-07-24T00:49:20;4.53;;;3.83;;
18249;SDS011;27980;52.126;5.572;2023-07-24T00:51:47;4.40;;;4.00;;
18249;SDS011;27980;52.126;5.572;2023-07-24T00:54:14;4.05;;;3.45;;
18249;SDS011;27980;52.126;5.572;2023-07-24T00:56:42;5.80;;;4.43;;
18249;SDS011;27980;52.126;5.572;2023-07-24T00:59:10;5.22;;;4.20;;
18249;SDS011;27980;52.126;5.572;2023-07-24T01:01:37;5.85;;;4.43;;
18249;SDS011;27980;52.126;5.572;2023-07-24T01:04:04;4.90;;;4.28;;
18249;SDS011;27980;52.126;5.572;2023-07-24T01:06:33;4.43;;;3.80;;
18249;SDS011;27980;52.126;5.572;2023-07-24T01:09:00;5.18;;;3.80;;
18249;SDS011;27980;52.126;5.572;2023-07-24T01:11:27;4.63;;;4.03;;
18249;SDS011;27980;52.126;5.572;2023-07-24T01:13:56;5.43;;;4.15;;
18249;SDS011;27980;52.126;5.572;2023-07-24T01:16:24;5.03;;;4.00;;
18249;SDS011;27980;52.126;5.572;2023-07-24T01:18:52;4.80;;;4.10;;
18249;SDS011;27980;52.126;5.572;2023-07-24T01:21:20;5.65;;;4.25;;
18249;SDS011;27980;52.126;5.572;2023-07-24T01:23:54;6.13;;;3.92;;
18249;SDS011;27980;52.126;5.572;2023-07-24T01:26:22;4.88;;;4.05;;
18249;SDS011;27980;52.126;5.572;2023-07-24T01:28:50;5.53;;;4.20;;
18249;SDS011;27980;52.126;5.572;2023-07-24T01:31:17;5.80;;;4.63;;
18249;SDS011;27980;52.126;5.572;2023-07-24T01:33:43;5.03;;;4.05;;
18249;SDS011;27980;52.126;5.572;2023-07-24T01:36:10;5.63;;;4.80;;
18249;SDS011;27980;52.126;5.572;2023-07-24T01:38:37;5.13;;;4.63;;
18249;SDS011;27980;52.126;5.572;2023-07-24T01:41:04;4.82;;;3.95;;
18249;SDS011;27980;52.126;5.572;2023-07-24T01:43:32;7.85;;;4.28;;
18249;SDS011;27980;52.126;5.572;2023-07-24T01:45:58;6.50;;;4.55;;
18249;SDS011;27980;52.126;5.572;2023-07-24T01:48:25;5.22;;;4.20;;
18249;SDS011;27980;52.126;5.572;2023-07-24T01:50:51;3.97;;;3.65;;
18249;SDS011;27980;52.126;5.572;2023-07-24T01:53:18;5.53;;;4.30;;
18249;SDS011;27980;52.126;5.572;2023-07-24T01:55:44;5.07;;;4.20;;
18249;SDS011;27980;52.126;5.572;2023-07-24T01:58:13;6.70;;;4.53;;
18249;SDS011;27980;52.126;5.572;2023-07-24T02:00:41;5.97;;;4.03;;
18249;SDS011;27980;52.126;5.572;2023-07-24T02:03:07;5.75;;;3.92;;
18249;SDS011;27980;52.126;5.572;2023-07-24T02:05:34;4.68;;;4.13;;
18249;SDS011;27980;52.126;5.572;2023-07-24T02:08:00;5.40;;;4.03;;
18249;SDS011;27980;52.126;5.572;2023-07-24T02:10:27;5.15;;;3.97;;
18249;SDS011;27980;52.126;5.572;2023-07-24T02:12:53;4.90;;;4.05;;
18249;SDS011;27980;52.126;5.572;2023-07-24T02:15:19;4.70;;;3.83;;
18249;SDS011;27980;52.126;5.572;2023-07-24T02:17:47;4.45;;;3.58;;
18249;SDS011;27980;52.126;5.572;2023-07-24T02:20:14;6.03;;;4.38;;
18249;SDS011;27980;52.126;5.572;2023-07-24T02:22:40;5.28;;;4.47;;
18249;SDS011;27980;52.126;5.572;2023-07-24T02:25:07;4.88;;;4.32;;
18249;SDS011;27980;52.126;5.572;2023-07-24T02:27:34;5.95;;;4.45;;
18249;SDS011;27980;52.126;5.572;2023-07-24T02:30:00;5.53;;;4.40;;
18249;SDS011;27980;52.126;5.572;2023-07-24T02:32:27;4.35;;;3.95;;
18249;SDS011;27980;52.126;5.572;2023-07-24T02:34:55;4.65;;;4.10;;
18249;SDS011;27980;52.126;5.572;2023-07-24T02:37:21;4.28;;;3.88;;
18249;SDS011;27980;52.126;5.572;2023-07-24T02:39:47;4.10;;;3.22;;
18249;SDS011;27980;52.126;5.572;2023-07-24T02:42:14;5.25;;;3.70;;
18249;SDS011;27980;52.126;5.572;2023-07-24T02:44:40;4.57;;;3.90;;
18249;SDS011;27980;52.126;5.572;2023-07-24T02:47:06;4.55;;;3.15;;
18249;SDS011;27980;52.126;5.572;2023-07-24T02:49:33;5.60;;;3.83;;
18249;SDS011;27980;52.126;5.572;2023-07-24T02:52:05;4.50;;;3.25;;
18249;SDS011;27980;52.126;5.572;2023-07-24T02:54:32;5.40;;;3.92;;
18249;SDS011;27980;52.126;5.572;2023-07-24T02:56:58;4.75;;;4.25;;
18249;SDS011;27980;52.126;5.572;2023-07-24T02:59:25;4.22;;;3.83;;
18249;SDS011;27980;52.126;5.572;2023-07-24T03:01:51;4.32;;;3.78;;
18249;SDS011;27980;52.126;5.572;2023-07-24T03:04:18;4.22;;;3.80;;
18249;SDS011;27980;52.126;5.572;2023-07-24T03:06:44;4.47;;;3.58;;
18249;SDS011;27980;52.126;5.572;2023-07-24T03:09:12;5.20;;;3.85;;
18249;SDS011;27980;52.126;5.572;2023-07-24T03:11:39;4.35;;;3.30;;
18249;SDS011;27980;52.126;5.572;2023-07-24T03:14:05;4.03;;;3.03;;
18249;SDS011;27980;52.126;5.572;2023-07-24T03:16:32;6.03;;;3.00;;
18249;SDS011;27980;52.126;5.572;2023-07-24T03:18:58;3.80;;;3.22;;
18249;SDS011;27980;52.126;5.572;2023-07-24T03:21:25;3.90;;;3.17;;
18249;SDS011;27980;52.126;5.572;2023-07-24T03:23:51;4.00;;;2.97;;
18249;SDS011;27980;52.126;5.572;2023-07-24T03:26:19;4.65;;;3.20;;
18249;SDS011;27980;52.126;5.572;2023-07-24T03:28:46;4.03;;;3.00;;
18249;SDS011;27980;52.126;5.572;2023-07-24T03:31:12;4.38;;;3.10;;
18249;SDS011;27980;52.126;5.572;2023-07-24T03:33:39;4.82;;;3.17;;
18249;SDS011;27980;52.126;5.572;2023-07-24T03:36:05;4.05;;;3.53;;
18249;SDS011;27980;52.126;5.572;2023-07-24T03:38:31;4.22;;;2.88;;
18249;SDS011;27980;52.126;5.572;2023-07-24T03:40:59;4.60;;;3.42;;
18249;SDS011;27980;52.126;5.572;2023-07-24T03:43:26;4.85;;;3.38;;
18249;SDS011;27980;52.126;5.572;2023-07-24T03:45:53;4.88;;;3.75;;
18249;SDS011;27980;52.126;5.572;2023-07-24T03:48:19;5.05;;;4.03;;
18249;SDS011;27980;52.126;5.572;2023-07-24T03:50:46;6.88;;;3.92;;
18249;SDS011;27980;52.126;5.572;2023-07-24T03:53:12;6.80;;;4.20;;
18249;SDS011;27980;52.126;5.572;2023-07-24T03:55:39;7.05;;;3.67;;
18249;SDS011;27980;52.126;5.572;2023-07-24T03:58:05;5.93;;;3.75;;
18249;SDS011;27980;52.126;5.572;2023-07-24T04:00:33;4.90;;;4.00;;
18249;SDS011;27980;52.126;5.572;2023-07-24T04:03:01;6.15;;;3.88;;
18249;SDS011;27980;52.126;5.572;2023-07-24T04:05:30;5.13;;;3.83;;
18249;SDS011;27980;52.126;5.572;2023-07-24T04:07:56;6.45;;;4.22;;
18249;SDS011;27980;52.126;5.572;2023-07-24T04:10:22;5.70;;;4.13;;
18249;SDS011;27980;52.126;5.572;2023-07-24T04:12:49;6.25;;;4.05;;
18249;SDS011;27980;52.126;5.572;2023-07-24T04:15:15;5.75;;;3.92;;
18249;SDS011;27980;52.126;5.572;2023-07-24T04:17:43;5.80;;;3.70;;
18249;SDS011;27980;52.126;5.572;2023-07-24T04:20:10;6.10;;;4.25;;
18249;SDS011;27980;52.126;5.572;2023-07-24T04:22:36;6.15;;;4.43;;
18249;SDS011;27980;52.126;5.572;2023-07-24T04:25:03;7.47;;;4.68;;
18249;SDS011;27980;52.126;5.572;2023-07-24T04:27:29;5.47;;;4.38;;
18249;SDS011;27980;52.126;5.572;2023-07-24T04:29:56;11.23;;;4.85;;
18249;SDS011;27980;52.126;5.572;2023-07-24T04:32:22;7.75;;;4.85;;
18249;SDS011;27980;52.126;5.572;2023-07-24T04:34:52;7.53;;;4.65;;
18249;SDS011;27980;52.126;5.572;2023-07-24T04:37:20;7.15;;;4.60;;
18249;SDS011;27980;52.126;5.572;2023-07-24T04:39:46;8.43;;;5.47;;
18249;SDS011;27980;52.126;5.572;2023-07-24T04:42:13;6.97;;;4.70;;
18249;SDS011;27980;52.126;5.572;2023-07-24T04:44:39;8.70;;;5.13;;
18249;SDS011;27980;52.126;5.572;2023-07-24T04:47:06;7.60;;;4.90;;
18249;SDS011;27980;52.126;5.572;2023-07-24T04:49:32;7.68;;;5.38;;
18249;SDS011;27980;52.126;5.572;2023-07-24T04:52:00;6.88;;;4.68;;
18249;SDS011;27980;52.126;5.572;2023-07-24T04:54:29;7.88;;;4.75;;
18249;SDS011;27980;52.126;5.572;2023-07-24T04:56:56;8.13;;;4.85;;
18249;SDS011;27980;52.126;5.572;2023-07-24T04:59:22;8.15;;;5.20;;
18249;SDS011;27980;52.126;5.572;2023-07-24T05:01:49;10.45;;;5.28;;
18249;SDS011;27980;52.126;5.572;2023-07-24T05:04:15;8.27;;;5.28;;
18249;SDS011;27980;52.126;5.572;2023-07-24T05:06:41;8.73;;;5.30;;
18249;SDS011;27980;52.126;5.572;2023-07-24T05:09:09;7.25;;;5.45;;
18249;SDS011;27980;52.126;5.572;2023-07-24T05:11:36;8.00;;;5.35;;
18249;SDS011;27980;52.126;5.572;2023-07-24T05:14:02;7.75;;;5.28;;
18249;SDS011;27980;52.126;5.572;2023-07-24T05:16:28;8.90;;;5.82;;
18249;SDS011;27980;52.126;5.572;2023-07-24T05:18:56;7.43;;;5.15;;
18249;SDS011;27980;52.126;5.572;2023-07-24T05:21:22;9.55;;;5.47;;
18249;SDS011;27980;52.126;5.572;2023-07-24T05:23:49;6.57;;;4.90;;
18249;SDS011;27980;52.126;5.572;2023-07-24T05:26:17;8.30;;;5.10;;
18249;SDS011;27980;52.126;5.572;2023-07-24T05:28:43;7.82;;;5.47;;
18249;SDS011;27980;52.126;5.572;2023-07-24T05:31:10;6.80;;;5.13;;
18249;SDS011;27980;52.126;5.572;2023-07-24T05:33:37;7.43;;;5.15;;
18249;SDS011;27980;52.126;5.572;2023-07-24T05:36:03;7.45;;;5.22;;
18249;SDS011;27980;52.126;5.572;2023-07-24T05:38:30;6.55;;;4.65;;
18249;SDS011;27980;52.126;5.572;2023-07-24T05:40:56;10.07;;;5.80;;
18249;SDS011;27980;52.126;5.572;2023-07-24T05:43:24;6.47;;;5.10;;
18249;SDS011;27980;52.126;5.572;2023-07-24T05:45:51;8.15;;;5.60;;
18249;SDS011;27980;52.126;5.572;2023-07-24T05:48:17;9.23;;;5.32;;
18249;SDS011;27980;52.126;5.572;2023-07-24T05:50:44;7.80;;;5.03;;
18249;SDS011;27980;52.126;5.572;2023-07-24T05:53:10;6.28;;;5.10;;
18249;SDS011;27980;52.126;5.572;2023-07-24T05:55:36;8.65;;;5.50;;
18249;SDS011;27980;52.126;5.572;2023-07-24T05:58:03;7.05;;;4.65;;
18249;SDS011;27980;52.126;5.572;2023-07-24T06:00:31;8.40;;;5.45;;
18249;SDS011;27980;52.126;5.572;2023-07-24T06:02:57;7.68;;;5.07;;
18249;SDS011;27980;52.126;5.572;2023-07-24T06:05:23;8.82;;;4.53;;
18249;SDS011;27980;52.126;5.572;2023-07-24T06:07:50;11.27;;;5.38;;
18249;SDS011;27980;52.126;5.572;2023-07-24T06:10:16;8.70;;;5.20;;
18249;SDS011;27980;52.126;5.572;2023-07-24T06:12:43;9.63;;;4.63;;
18249;SDS011;27980;52.126;5.572;2023-07-24T06:15:09;6.93;;;5.03;;
18249;SDS011;27980;52.126;5.572;2023-07-24T06:17:37;7.07;;;4.75;;
18249;SDS011;27980;52.126;5.572;2023-07-24T06:20:07;9.45;;;4.70;;
18249;SDS011;27980;52.126;5.572;2023-07-24T06:22:35;7.88;;;4.88;;
18249;SDS011;27980;52.126;5.572;2023-07-24T06:25:02;9.52;;;4.63;;
18249;SDS011;27980;52.126;5.572;2023-07-24T06:27:28;7.45;;;5.15;;
18249;SDS011;27980;52.126;5.572;2023-07-24T06:29:55;11.50;;;5.03;;
18249;SDS011;27980;52.126;5.572;2023-07-24T06:32:21;7.03;;;4.55;;
18249;SDS011;27980;52.126;5.572;2023-07-24T06:34:49;7.18;;;4.45;;
18249;SDS011;27980;52.126;5.572;2023-07-24T06:37:16;8.55;;;5.45;;
18249;SDS011;27980;52.126;5.572;2023-07-24T06:39:42;10.13;;;4.65;;
18249;SDS011;27980;52.126;5.572;2023-07-24T06:42:10;7.47;;;4.15;;
18249;SDS011;27980;52.126;5.572;2023-07-24T06:44:37;7.40;;;4.60;;
18249;SDS011;27980;52.126;5.572;2023-07-24T06:47:03;6.70;;;4.43;;
18249;SDS011;27980;52.126;5.572;2023-07-24T06:49:29;8.52;;;4.43;;
18249;SDS011;27980;52.126;5.572;2023-07-24T06:51:57;4.25;;;3.78;;
18249;SDS011;27980;52.126;5.572;2023-07-24T06:54:25;6.30;;;4.10;;
18249;SDS011;27980;52.126;5.572;2023-07-24T06:56:51;5.50;;;4.03;;
18249;SDS011;27980;52.126;5.572;2023-07-24T06:59:18;5.15;;;4.10;;
18249;SDS011;27980;52.126;5.572;2023-07-24T07:01:46;6.95;;;4.32;;
18249;SDS011;27980;52.126;5.572;2023-07-24T07:04:12;6.85;;;4.00;;
18249;SDS011;27980;52.126;5.572;2023-07-24T07:06:40;9.32;;;3.80;;
18249;SDS011;27980;52.126;5.572;2023-07-24T07:09:07;5.18;;;3.80;;
18249;SDS011;27980;52.126;5.572;2023-07-24T07:11:34;8.05;;;4.30;;
18249;SDS011;27980;52.126;5.572;2023-07-24T07:14:01;5.60;;;4.20;;
18249;SDS011;27980;52.126;5.572;2023-07-24T07:16:28;7.15;;;3.92;;
18249;SDS011;27980;52.126;5.572;2023-07-24T07:18:54;12.85;;;4.03;;
18249;SDS011;27980;52.126;5.572;2023-07-24T07:21:21;6.38;;;3.70;;
18249;SDS011;27980;52.126;5.572;2023-07-24T07:23:47;7.05;;;3.92;;
18249;SDS011;27980;52.126;5.572;2023-07-24T07:26:15;6.57;;;4.45;;
18249;SDS011;27980;52.126;5.572;2023-07-24T07:28:41;4.03;;;3.58;;
18249;SDS011;27980;52.126;5.572;2023-07-24T07:31:07;8.27;;;4.32;;
18249;SDS011;27980;52.126;5.572;2023-07-24T07:33:34;6.70;;;4.40;;
18249;SDS011;27980;52.126;5.572;2023-07-24T07:36:00;6.53;;;4.05;;
18249;SDS011;27980;52.126;5.572;2023-07-24T07:38:27;8.43;;;4.53;;
18249;SDS011;27980;52.126;5.572;2023-07-24T07:40:54;7.32;;;4.13;;
18249;SDS011;27980;52.126;5.572;2023-07-24T07:43:24;4.32;;;3.13;;
18249;SDS011;27980;52.126;5.572;2023-07-24T07:45:50;7.32;;;3.42;;
18249;SDS011;27980;52.126;5.572;2023-07-24T07:48:18;5.65;;;4.03;;
18249;SDS011;27980;52.126;5.572;2023-07-24T07:50:44;7.68;;;3.63;;
18249;SDS011;27980;52.126;5.572;2023-07-24T07:53:16;3.90;;;3.25;;
18249;SDS011;27980;52.126;5.572;2023-07-24T07:55:42;7.18;;;3.10;;
18249;SDS011;27980;52.126;5.572;2023-07-24T07:58:08;5.07;;;3.35;;
18249;SDS011;27980;52.126;5.572;2023-07-24T08:00:36;4.15;;;3.35;;
18249;SDS011;27980;52.126;5.572;2023-07-24T08:03:05;4.05;;;3.22;;
18249;SDS011;27980;52.126;5.572;2023-07-24T08:05:31;5.15;;;3.35;;
18249;SDS011;27980;52.126;5.572;2023-07-24T08:07:58;4.80;;;3.78;;
18249;SDS011;27980;52.126;5.572;2023-07-24T08:10:24;4.70;;;3.20;;
18249;SDS011;27980;52.126;5.572;2023-07-24T08:12:50;5.63;;;3.80;;
18249;SDS011;27980;52.126;5.572;2023-07-24T08:15:17;4.65;;;3.47;;
18249;SDS011;27980;52.126;5.572;2023-07-24T08:17:45;5.40;;;3.65;;
18249;SDS011;27980;52.126;5.572;2023-07-24T08:20:12;7.43;;;4.03;;
18249;SDS011;27980;52.126;5.572;2023-07-24T08:22:46;7.63;;;3.90;;
18249;SDS011;27980;52.126;5.572;2023-07-24T08:25:13;4.68;;;3.30;;
18249;SDS011;27980;52.126;5.572;2023-07-24T08:27:40;6.60;;;3.70;;
18249;SDS011;27980;52.126;5.572;2023-07-24T08:30:06;6.53;;;3.60;;
18249;SDS011;27980;52.126;5.572;2023-07-24T08:32:35;6.93;;;3.38;;
18249;SDS011;27980;52.126;5.572;2023-07-24T08:35:03;6.32;;;2.95;;
18249;SDS011;27980;52.126;5.572;2023-07-24T08:37:29;3.47;;;3.05;;
18249;SDS011;27980;52.126;5.572;2023-07-24T08:39:56;5.05;;;3.70;;
18249;SDS011;27980;52.126;5.572;2023-07-24T08:42:22;8.05;;;3.55;;
18249;SDS011;27980;52.126;5.572;2023-07-24T08:44:49;3.40;;;2.63;;
18249;SDS011;27980;52.126;5.572;2023-07-24T08:47:17;5.28;;;2.97;;
18249;SDS011;27980;52.126;5.572;2023-07-24T08:49:43;7.80;;;3.00;;
18249;SDS011;27980;52.126;5.572;2023-07-24T08:52:11;5.05;;;3.15;;
18249;SDS011;27980;52.126;5.572;2023-07-24T08:54:39;4.20;;;3.20;;
18249;SDS011;27980;52.126;5.572;2023-07-24T08:57:06;4.90;;;3.33;;
18249;SDS011;27980;52.126;5.572;2023-07-24T08:59:33;4.85;;;3.17;;
18249;SDS011;27980;52.126;5.572;2023-07-24T09:02:00;4.38;;;2.78;;
18249;SDS011;27980;52.126;5.572;2023-07-24T09:04:26;5.75;;;3.58;;
18249;SDS011;27980;52.126;5.572;2023-07-24T09:06:53;4.40;;;3.08;;
18249;SDS011;27980;52.126;5.572;2023-07-24T09:09:23;4.38;;;3.33;;
18249;SDS011;27980;52.126;5.572;2023-07-24T09:11:54;5.45;;;3.70;;
18249;SDS011;27980;52.126;5.572;2023-07-24T09:14:25;4.32;;;3.90;;
18249;SDS011;27980;52.126;5.572;2023-07-24T09:17:01;5.68;;;3.53;;
18249;SDS011;27980;52.126;5.572;2023-07-24T09:19:30;5.10;;;3.53;;
18249;SDS011;27980;52.126;5.572;2023-07-24T09:22:06;6.28;;;3.90;;
18249;SDS011;27980;52.126;5.572;2023-07-24T09:24:35;6.85;;;3.45;;
18249;SDS011;27980;52.126;5.572;2023-07-24T09:27:04;6.47;;;3.90;;
18249;SDS011;27980;52.126;5.572;2023-07-24T09:29:30;3.25;;;2.88;;
18249;SDS011;27980;52.126;5.572;2023-07-24T09:31:58;3.28;;;2.97;;
18249;SDS011;27980;52.126;5.572;2023-07-24T09:34:25;4.57;;;3.78;;
18249;SDS011;27980;52.126;5.572;2023-07-24T09:36:51;4.28;;;3.40;;
18249;SDS011;27980;52.126;5.572;2023-07-24T09:39:22;4.88;;;3.90;;
18249;SDS011;27980;52.126;5.572;2023-07-24T09:41:50;3.67;;;3.13;;
18249;SDS011;27980;52.126;5.572;2023-07-24T09:44:17;4.82;;;3.33;;
18249;SDS011;27980;52.126;5.572;2023-07-24T09:46:44;4.55;;;3.28;;
18249;SDS011;27980;52.126;5.572;2023-07-24T09:49:10;5.60;;;3.42;;
18249;SDS011;27980;52.126;5.572;2023-07-24T09:51:37;4.88;;;3.80;;
18249;SDS011;27980;52.126;5.572;2023-07-24T09:54:06;6.35;;;4.13;;
18249;SDS011;27980;52.126;5.572;2023-07-24T09:56:33;4.53;;;3.42;;
18249;SDS011;27980;52.126;5.572;2023-07-24T09:59:02;3.92;;;3.17;;
18249;SDS011;27980;52.126;5.572;2023-07-24T10:01:30;4.47;;;3.30;;
18249;SDS011;27980;52.126;5.572;2023-07-24T10:04:00;3.75;;;2.95;;
18249;SDS011;27980;52.126;5.572;2023-07-24T10:06:26;5.43;;;3.78;;
18249;SDS011;27980;52.126;5.572;2023-07-24T10:08:54;4.53;;;3.38;;
18249;SDS011;27980;52.126;5.572;2023-07-24T10:11:21;3.40;;;3.03;;
18249;SDS011;27980;52.126;5.572;2023-07-24T10:13:48;5.20;;;3.15;;
18249;SDS011;27980;52.126;5.572;2023-07-24T10:16:16;6.45;;;2.92;;
18249;SDS011;27980;52.126;5.572;2023-07-24T10:18:43;4.65;;;3.30;;
18249;SDS011;27980;52.126;5.572;2023-07-24T10:21:10;6.10;;;3.63;;
18249;SDS011;27980;52.126;5.572;2023-07-24T10:23:37;4.03;;;2.83;;
18249;SDS011;27980;52.126;5.572;2023-07-24T10:26:06;5.10;;;3.20;;
18249;SDS011;27980;52.126;5.572;2023-07-24T10:28:34;4.55;;;2.85;;
18249;SDS011;27980;52.126;5.572;2023-07-24T10:31:04;4.70;;;3.17;;
18249;SDS011;27980;52.126;5.572;2023-07-24T10:33:35;5.65;;;2.95;;
18249;SDS011;27980;52.126;5.572;2023-07-24T10:36:04;4.95;;;2.92;;
18249;SDS011;27980;52.126;5.572;2023-07-24T10:38:33;3.60;;;2.63;;
18249;SDS011;27980;52.126;5.572;2023-07-24T10:41:01;6.32;;;3.25;;
18249;SDS011;27980;52.126;5.572;2023-07-24T10:43:28;6.18;;;2.80;;
18249;SDS011;27980;52.126;5.572;2023-07-24T10:45:54;6.72;;;3.50;;
18249;SDS011;27980;52.126;5.572;2023-07-24T10:48:21;5.93;;;3.38;;
18249;SDS011;27980;52.126;5.572;2023-07-24T10:50:50;3.72;;;3.28;;
18249;SDS011;27980;52.126;5.572;2023-07-24T10:53:17;4.22;;;2.72;;
18249;SDS011;27980;52.126;5.572;2023-07-24T10:55:43;4.32;;;3.20;;
18249;SDS011;27980;52.126;5.572;2023-07-24T10:58:11;5.38;;;2.90;;
18249;SDS011;27980;52.126;5.572;2023-07-24T11:00:39;4.10;;;3.20;;
18249;SDS011;27980;52.126;5.572;2023-07-24T11:03:07;4.30;;;2.78;;
18249;SDS011;27980;52.126;5.572;2023-07-24T11:05:35;5.57;;;2.83;;
18249;SDS011;27980;52.126;5.572;2023-07-24T11:08:02;3.70;;;2.78;;
18249;SDS011;27980;52.126;5.572;2023-07-24T11:10:34;3.42;;;2.97;;
18249;SDS011;27980;52.126;5.572;2023-07-24T11:13:00;2.67;;;2.42;;
18249;SDS011;27980;52.126;5.572;2023-07-24T11:15:27;5.05;;;3.30;;
18249;SDS011;27980;52.126;5.572;2023-07-24T11:17:54;6.53;;;3.13;;
18249;SDS011;27980;52.126;5.572;2023-07-24T11:20:20;4.35;;;2.80;;
18249;SDS011;27980;52.126;5.572;2023-07-24T11:22:47;5.47;;;3.10;;
18249;SDS011;27980;52.126;5.572;2023-07-24T11:25:17;3.88;;;2.80;;
18249;SDS011;27980;52.126;5.572;2023-07-24T11:27:44;3.40;;;3.00;;
18249;SDS011;27980;52.126;5.572;2023-07-24T11:30:12;4.55;;;2.83;;
18249;SDS011;27980;52.126;5.572;2023-07-24T11:32:39;5.13;;;3.10;;
18249;SDS011;27980;52.126;5.572;2023-07-24T11:35:07;4.65;;;2.90;;
18249;SDS011;27980;52.126;5.572;2023-07-24T11:37:35;6.25;;;2.90;;
18249;SDS011;27980;52.126;5.572;2023-07-24T11:40:03;5.00;;;2.70;;
18249;SDS011;27980;52.126;5.572;2023-07-24T11:42:37;5.70;;;3.45;;
18249;SDS011;27980;52.126;5.572;2023-07-24T11:45:06;4.45;;;3.15;;
18249;SDS011;27980;52.126;5.572;2023-07-24T11:47:40;2.88;;;2.55;;
18249;SDS011;27980;52.126;5.572;2023-07-24T11:50:07;3.58;;;3.00;;
18249;SDS011;27980;52.126;5.572;2023-07-24T11:52:37;3.72;;;3.20;;
18249;SDS011;27980;52.126;5.572;2023-07-24T11:55:04;4.60;;;3.00;;
18249;SDS011;27980;52.126;5.572;2023-07-24T11:57:31;7.82;;;3.40;;
18249;SDS011;27980;52.126;5.572;2023-07-24T11:59:59;5.25;;;3.72;;
18249;SDS011;27980;52.126;5.572;2023-07-24T12:02:25;5.47;;;3.92;;
18249;SDS011;27980;52.126;5.572;2023-07-24T12:04:55;3.53;;;2.80;;
18249;SDS011;27980;52.126;5.572;2023-07-24T12:07:28;3.78;;;3.03;;
18249;SDS011;27980;52.126;5.572;2023-07-24T12:09:55;3.72;;;3.22;;
18249;SDS011;27980;52.126;5.572;2023-07-24T12:12:21;5.40;;;3.92;;
18249;SDS011;27980;52.126;5.572;2023-07-24T12:14:51;5.72;;;3.55;;
18249;SDS011;27980;52.126;5.572;2023-07-24T12:17:22;7.15;;;4.10;;
18249;SDS011;27980;52.126;5.572;2023-07-24T12:19:49;6.88;;;4.28;;
18249;SDS011;27980;52.126;5.572;2023-07-24T12:22:24;5.57;;;4.72;;
18249;SDS011;27980;52.126;5.572;2023-07-24T12:24:51;4.63;;;3.85;;
18249;SDS011;27980;52.126;5.572;2023-07-24T12:27:18;4.63;;;4.10;;
18249;SDS011;27980;52.126;5.572;2023-07-24T12:29:44;6.82;;;4.35;;
18249;SDS011;27980;52.126;5.572;2023-07-24T12:32:11;6.45;;;3.92;;
18249;SDS011;27980;52.126;5.572;2023-07-24T12:34:39;5.40;;;3.85;;
18249;SDS011;27980;52.126;5.572;2023-07-24T12:37:06;6.03;;;4.10;;
18249;SDS011;27980;52.126;5.572;2023-07-24T12:39:32;5.82;;;3.95;;
18249;SDS011;27980;52.126;5.572;2023-07-24T12:41:59;6.97;;;4.18;;
18249;SDS011;27980;52.126;5.572;2023-07-24T12:44:26;9.52;;;4.28;;
18249;SDS011;27980;52.126;5.572;2023-07-24T12:46:53;6.20;;;3.90;;
18249;SDS011;27980;52.126;5.572;2023-07-24T12:49:20;5.07;;;4.20;;
18249;SDS011;27980;52.126;5.572;2023-07-24T12:51:48;9.32;;;3.80;;
18249;SDS011;27980;52.126;5.572;2023-07-24T12:54:18;4.32;;;3.35;;
18249;SDS011;27980;52.126;5.572;2023-07-24T12:56:47;5.18;;;3.65;;
18249;SDS011;27980;52.126;5.572;2023-07-24T12:59:14;4.38;;;3.58;;
18249;SDS011;27980;52.126;5.572;2023-07-24T13:01:40;4.65;;;3.83;;
18249;SDS011;27980;52.126;5.572;2023-07-24T13:04:07;5.70;;;3.58;;
18249;SDS011;27980;52.126;5.572;2023-07-24T13:06:33;4.93;;;3.67;;
18249;SDS011;27980;52.126;5.572;2023-07-24T13:09:01;5.30;;;3.95;;
18249;SDS011;27980;52.126;5.572;2023-07-24T13:11:28;5.05;;;3.90;;
18249;SDS011;27980;52.126;5.572;2023-07-24T13:13:54;6.28;;;3.92;;
18249;SDS011;27980;52.126;5.572;2023-07-24T13:16:21;7.00;;;3.50;;
18249;SDS011;27980;52.126;5.572;2023-07-24T13:18:47;4.43;;;3.35;;
18249;SDS011;27980;52.126;5.572;2023-07-24T13:21:14;2.78;;;2.47;;
18249;SDS011;27980;52.126;5.572;2023-07-24T13:23:40;4.85;;;2.40;;
18249;SDS011;27980;52.126;5.572;2023-07-24T13:26:09;2.80;;;1.98;;
18249;SDS011;27980;52.126;5.572;2023-07-24T13:28:37;3.90;;;2.55;;
18249;SDS011;27980;52.126;5.572;2023-07-24T13:31:15;3.03;;;2.60;;
18249;SDS011;27980;52.126;5.572;2023-07-24T13:33:41;5.93;;;3.78;;
18249;SDS011;27980;52.126;5.572;2023-07-24T13:36:09;4.75;;;3.38;;
18249;SDS011;27980;52.126;5.572;2023-07-24T13:38:36;4.38;;;3.97;;
18249;SDS011;27980;52.126;5.572;2023-07-24T13:41:03;5.97;;;4.32;;
18249;SDS011;27980;52.126;5.572;2023-07-24T13:43:31;5.10;;;4.18;;
18249;SDS011;27980;52.126;5.572;2023-07-24T13:45:57;8.43;;;5.15;;
18249;SDS011;27980;52.126;5.572;2023-07-24T13:48:27;8.55;;;4.63;;
18249;SDS011;27980;52.126;5.572;2023-07-24T13:50:56;5.75;;;4.43;;
18249;SDS011;27980;52.126;5.572;2023-07-24T13:53:22;7.75;;;4.97;;
18249;SDS011;27980;52.126;5.572;2023-07-24T13:55:49;5.15;;;4.60;;
18249;SDS011;27980;52.126;5.572;2023-07-24T13:58:18;7.07;;;4.93;;
18249;SDS011;27980;52.126;5.572;2023-07-24T14:00:45;6.70;;;4.95;;
18249;SDS011;27980;52.126;5.572;2023-07-24T14:03:12;8.35;;;4.95;;
18249;SDS011;27980;52.126;5.572;2023-07-24T14:05:38;5.65;;;5.05;;
18249;SDS011;27980;52.126;5.572;2023-07-24T14:08:06;8.52;;;5.55;;
18249;SDS011;27980;52.126;5.572;2023-07-24T14:10:36;6.32;;;5.38;;
18249;SDS011;27980;52.126;5.572;2023-07-24T14:13:03;5.82;;;4.40;;
18249;SDS011;27980;52.126;5.572;2023-07-24T14:15:29;5.93;;;4.97;;
18249;SDS011;27980;52.126;5.572;2023-07-24T14:17:57;6.40;;;4.53;;
18249;SDS011;27980;52.126;5.572;2023-07-24T14:20:24;4.85;;;4.10;;
18249;SDS011;27980;52.126;5.572;2023-07-24T14:22:50;7.80;;;4.45;;
18249;SDS011;27980;52.126;5.572;2023-07-24T14:25:17;6.75;;;4.40;;
18249;SDS011;27980;52.126;5.572;2023-07-24T14:27:43;4.53;;;3.90;;
18249;SDS011;27980;52.126;5.572;2023-07-24T14:30:10;4.22;;;3.83;;
18249;SDS011;27980;52.126;5.572;2023-07-24T14:32:38;6.75;;;3.85;;
18249;SDS011;27980;52.126;5.572;2023-07-24T14:35:07;6.75;;;3.53;;
18249;SDS011;27980;52.126;5.572;2023-07-24T14:37:33;5.05;;;4.00;;
18249;SDS011;27980;52.126;5.572;2023-07-24T14:40:00;4.40;;;3.38;;
18249;SDS011;27980;52.126;5.572;2023-07-24T14:42:27;4.03;;;3.63;;
18249;SDS011;27980;52.126;5.572;2023-07-24T14:44:54;4.78;;;3.78;;
18249;SDS011;27980;52.126;5.572;2023-07-24T14:47:20;4.57;;;3.88;;